createdAt,value
2017-09-23T00:01:18.762Z,99.90
2017-09-23T00:03:46.184Z,99.90
2017-09-23T00:06:14.400Z,99.90
2017-09-23T00:08:41.851Z,99.90
2017-09-23T00:11:09.263Z,99.90
2017-09-23T00:13:37.478Z,99.90
2017-09-23T00:16:04.895Z,99.90
2017-09-23T00:18:33.070Z,99.90
2017-09-23T00:21:01.287Z,99.90
2017-09-23T00:23:28.738Z,99.90
2017-09-23T00:25:56.304Z,99.90
2017-09-23T00:28:23.707Z,99.90
2017-09-23T00:30:52.626Z,99.90
2017-09-23T00:33:20.099Z,99.90
2017-09-23T00:35:47.514Z,99.90
2017-09-23T00:38:14.922Z,99.90
2017-09-23T00:40:42.371Z,99.90
2017-09-23T00:43:09.787Z,99.90
2017-09-23T00:45:38.003Z,99.90
2017-09-23T00:48:05.460Z,99.90
2017-09-23T00:50:32.879Z,99.90
2017-09-23T00:53:01.087Z,99.90
2017-09-23T00:55:28.499Z,99.90
2017-09-23T00:57:56.719Z,99.90
2017-09-23T01:00:24.181Z,99.90
2017-09-23T01:02:51.587Z,99.90
2017-09-23T01:05:19.775Z,99.90
2017-09-23T01:07:47.950Z,99.90
2017-09-23T01:10:15.370Z,99.90
2017-09-23T01:12:42.786Z,99.90
2017-09-23T01:15:10.760Z,99.90
2017-09-23T01:17:38.177Z,99.90
2017-09-23T01:20:06.354Z,99.90
2017-09-23T01:22:34.535Z,99.90
2017-09-23T01:25:01.959Z,99.90
2017-09-23T01:27:29.472Z,99.90
2017-09-23T01:29:56.951Z,99.90
2017-09-23T01:32:24.431Z,99.90
2017-09-23T01:34:51.876Z,99.90
2017-09-23T01:37:19.339Z,99.90
2017-09-23T01:39:46.763Z,99.90
2017-09-23T01:42:14.175Z,99.90
2017-09-23T01:44:42.355Z,99.90
2017-09-23T01:47:10.560Z,99.90
2017-09-23T01:49:38.467Z,99.90
2017-09-23T01:52:05.878Z,99.90
2017-09-23T01:54:33.298Z,99.90
2017-09-23T01:57:01.518Z,99.90
2017-09-23T01:59:29.716Z,99.90
2017-09-23T02:01:57.146Z,99.90
2017-09-23T02:04:24.608Z,99.90
2017-09-23T02:06:52.006Z,99.90
2017-09-23T02:09:19.418Z,99.90
2017-09-23T02:11:46.830Z,99.90
2017-09-23T02:14:15.016Z,99.90
2017-09-23T02:16:42.501Z,99.90
2017-09-23T02:19:09.911Z,99.90
2017-09-23T02:21:38.133Z,99.90
2017-09-23T02:24:05.549Z,99.90
2017-09-23T02:26:33.760Z,99.90
2017-09-23T02:29:01.170Z,99.90
2017-09-23T02:31:29.351Z,99.90
2017-09-23T02:33:57.542Z,99.90
2017-09-23T02:36:25.030Z,99.90
2017-09-23T02:38:52.440Z,99.90
2017-09-23T02:41:20.644Z,99.90
2017-09-23T02:43:48.059Z,99.90
2017-09-23T02:46:16.234Z,99.90
2017-09-23T02:48:44.420Z,99.90
2017-09-23T02:51:12.624Z,99.90
2017-09-23T02:53:40.037Z,99.90
2017-09-23T02:56:09.024Z,99.90
2017-09-23T02:58:37.239Z,99.90
2017-09-23T03:01:05.416Z,99.90
2017-09-23T03:03:32.822Z,99.90
2017-09-23T03:06:01.003Z,99.90
2017-09-23T03:08:29.182Z,99.90
2017-09-23T03:10:57.366Z,99.90
2017-09-23T03:13:25.563Z,99.90
2017-09-23T03:15:52.975Z,99.90
2017-09-23T03:18:20.395Z,99.90
2017-09-23T03:20:47.838Z,99.90
2017-09-23T03:23:15.255Z,99.90
2017-09-23T03:25:45.063Z,99.90
2017-09-23T03:28:13.241Z,99.90
2017-09-23T03:30:41.451Z,99.90
2017-09-23T03:33:08.870Z,99.90
2017-09-23T03:35:37.044Z,99.90
2017-09-23T03:38:05.229Z,99.90
2017-09-23T03:40:32.647Z,99.90
2017-09-23T03:43:00.063Z,99.90
2017-09-23T03:45:27.746Z,99.90
2017-09-23T03:47:55.970Z,99.90
2017-09-23T03:50:24.163Z,99.90
2017-09-23T03:52:51.628Z,99.90
2017-09-23T03:55:19.038Z,99.90
2017-09-23T03:57:47.219Z,99.90
2017-09-23T04:00:15.419Z,99.90
2017-09-23T04:02:42.883Z,99.90
2017-09-23T04:05:10.351Z,99.90
2017-09-23T04:07:37.818Z,99.90
2017-09-23T04:10:05.255Z,99.90
2017-09-23T04:12:32.710Z,99.90
2017-09-23T04:15:00.128Z,99.90
2017-09-23T04:17:28.347Z,99.90
2017-09-23T04:19:55.762Z,99.90
2017-09-23T04:22:23.978Z,99.90
2017-09-23T04:24:51.386Z,99.90
2017-09-23T04:27:19.606Z,99.90
2017-09-23T04:29:47.010Z,99.90
2017-09-23T04:32:15.195Z,99.90
2017-09-23T04:34:43.379Z,99.90
2017-09-23T04:37:11.587Z,99.90
2017-09-23T04:39:39.040Z,99.90
2017-09-23T04:42:06.459Z,99.90
2017-09-23T04:44:34.675Z,99.90
2017-09-23T04:47:02.091Z,99.90
2017-09-23T04:49:30.299Z,99.90
2017-09-23T04:51:57.753Z,99.90
2017-09-23T04:54:25.163Z,99.90
2017-09-23T04:56:53.347Z,99.90
2017-09-23T04:59:21.555Z,99.90
2017-09-23T05:01:48.973Z,99.90
2017-09-23T05:04:17.153Z,99.90
2017-09-23T05:06:44.654Z,99.90
2017-09-23T05:09:12.094Z,99.90
2017-09-23T05:11:39.661Z,99.90
2017-09-23T05:14:07.059Z,99.90
2017-09-23T05:16:35.282Z,99.90
2017-09-23T05:19:02.743Z,99.90
2017-09-23T05:21:30.603Z,99.90
2017-09-23T05:23:58.026Z,99.90
2017-09-23T05:26:26.206Z,99.90
2017-09-23T05:28:54.406Z,99.90
2017-09-23T05:31:21.822Z,99.90
2017-09-23T05:33:50.012Z,99.90
2017-09-23T05:36:18.195Z,99.90
2017-09-23T05:38:45.610Z,99.90
2017-09-23T05:41:13.127Z,99.90
2017-09-23T05:43:40.540Z,99.90
2017-09-23T05:46:08.731Z,99.90
2017-09-23T05:48:36.923Z,99.90
2017-09-23T05:51:04.794Z,99.90
2017-09-23T05:53:32.274Z,99.90
2017-09-23T05:55:59.702Z,99.90
2017-09-23T05:58:27.784Z,99.90
2017-09-23T06:00:55.205Z,99.90
2017-09-23T06:03:23.719Z,99.90
2017-09-23T06:05:51.170Z,99.90
2017-09-23T06:08:21.507Z,99.90
2017-09-23T06:10:48.956Z,99.90
2017-09-23T06:13:16.375Z,99.90
2017-09-23T06:15:45.392Z,99.90
2017-09-23T06:18:13.231Z,99.90
2017-09-23T06:20:41.439Z,99.60
2017-09-23T06:23:08.910Z,99.50
2017-09-23T06:25:36.315Z,99.20
2017-09-23T06:28:04.527Z,98.60
2017-09-23T06:30:32.314Z,98.50
2017-09-23T06:32:59.734Z,98.30
2017-09-23T06:35:27.151Z,98.10
2017-09-23T06:37:54.564Z,98.20
2017-09-23T06:40:21.978Z,98.40
2017-09-23T06:42:50.168Z,98.20
2017-09-23T06:45:17.579Z,98.20
2017-09-23T06:47:44.991Z,98.50
2017-09-23T06:50:12.460Z,98.40
2017-09-23T06:52:40.371Z,98.60
2017-09-23T06:55:07.791Z,98.30
2017-09-23T06:57:35.345Z,98.10
2017-09-23T07:00:02.791Z,97.70
2017-09-23T07:02:30.980Z,97.50
2017-09-23T07:04:58.418Z,97.30
2017-09-23T07:07:25.831Z,97.10
2017-09-23T07:09:54.016Z,97.00
2017-09-23T07:12:22.196Z,97.60
2017-09-23T07:14:50.407Z,97.60
2017-09-23T07:17:18.470Z,97.60
2017-09-23T07:19:45.883Z,97.60
2017-09-23T07:22:13.591Z,97.60
2017-09-23T07:24:41.003Z,97.50
2017-09-23T07:27:09.224Z,98.00
2017-09-23T07:29:36.639Z,97.50
2017-09-23T07:32:04.835Z,97.60
2017-09-23T07:34:32.276Z,97.60
2017-09-23T07:37:00.484Z,97.70
2017-09-23T07:39:27.895Z,97.70
2017-09-23T07:41:55.307Z,97.70
2017-09-23T07:44:22.726Z,97.50
2017-09-23T07:46:50.222Z,97.70
2017-09-23T07:49:17.654Z,97.60
2017-09-23T07:51:45.089Z,97.50
2017-09-23T07:54:13.262Z,97.20
2017-09-23T07:56:41.447Z,96.90
2017-09-23T07:59:09.318Z,96.90
2017-09-23T08:01:36.747Z,96.80
2017-09-23T08:04:04.927Z,96.80
2017-09-23T08:06:33.136Z,96.90
2017-09-23T08:09:00.589Z,96.90
2017-09-23T08:11:28.014Z,96.90
2017-09-23T08:13:56.583Z,96.40
2017-09-23T08:16:24.003Z,96.30
2017-09-23T08:18:51.415Z,96.10
2017-09-23T08:21:19.603Z,96.10
2017-09-23T08:23:47.075Z,96.10
2017-09-23T08:26:14.489Z,96.00
2017-09-23T08:28:42.664Z,95.90
2017-09-23T08:31:10.882Z,95.30
2017-09-23T08:33:38.321Z,95.20
2017-09-23T08:36:05.735Z,94.90
2017-09-23T08:38:33.928Z,94.80
2017-09-23T08:41:02.128Z,94.50
2017-09-23T08:43:30.111Z,94.50
2017-09-23T08:45:57.528Z,94.40
2017-09-23T08:48:25.709Z,94.10
2017-09-23T08:50:53.133Z,94.10
2017-09-23T08:53:20.651Z,94.20
2017-09-23T08:55:48.060Z,94.40
2017-09-23T08:58:16.270Z,94.30
2017-09-23T09:00:43.728Z,94.30
2017-09-23T09:03:11.287Z,94.30
2017-09-23T09:05:38.715Z,94.40
2017-09-23T09:08:06.923Z,94.50
2017-09-23T09:10:34.347Z,94.40
2017-09-23T09:13:02.527Z,93.80
2017-09-23T09:15:29.940Z,93.80
2017-09-23T09:17:57.470Z,93.50
2017-09-23T09:20:24.925Z,92.80
2017-09-23T09:22:52.319Z,92.40
2017-09-23T09:25:19.851Z,92.40
2017-09-23T09:27:47.254Z,92.40
2017-09-23T09:30:15.446Z,92.00
2017-09-23T09:32:42.863Z,92.00
2017-09-23T09:35:10.272Z,92.20
2017-09-23T09:37:37.727Z,92.40
2017-09-23T09:40:05.327Z,93.10
2017-09-23T09:42:32.764Z,93.20
2017-09-23T09:45:00.208Z,93.30
2017-09-23T09:47:27.655Z,93.60
2017-09-23T09:49:55.074Z,93.20
2017-09-23T09:52:23.263Z,92.50
2017-09-23T09:54:51.459Z,91.90
2017-09-23T09:57:18.915Z,91.90
2017-09-23T09:59:46.375Z,91.70
2017-09-23T10:02:13.798Z,91.30
2017-09-23T10:04:41.973Z,90.90
2017-09-23T10:07:10.154Z,90.50
2017-09-23T10:09:37.574Z,90.50
2017-09-23T10:12:05.197Z,90.40
2017-09-23T10:14:32.624Z,90.10
2017-09-23T10:17:00.824Z,89.00
2017-09-23T10:19:28.280Z,89.00
2017-09-23T10:21:55.698Z,89.60
2017-09-23T10:24:23.892Z,90.10
2017-09-23T10:26:51.309Z,90.00
2017-09-23T10:29:18.828Z,89.40
2017-09-23T10:31:46.281Z,88.90
2017-09-23T10:34:13.750Z,89.60
2017-09-23T10:36:41.171Z,89.90
2017-09-23T10:39:08.647Z,90.80
2017-09-23T10:41:36.075Z,90.40
2017-09-23T10:44:04.254Z,90.10
2017-09-23T10:46:31.687Z,90.10
2017-09-23T10:48:59.642Z,90.00
2017-09-23T10:51:27.578Z,89.40
2017-09-23T10:53:55.003Z,88.00
2017-09-23T10:56:22.427Z,88.00
2017-09-23T10:58:49.839Z,88.00
2017-09-23T11:01:17.823Z,88.30
2017-09-23T11:03:45.260Z,87.40
2017-09-23T11:06:12.691Z,86.60
2017-09-23T11:08:40.982Z,87.50
2017-09-23T11:11:08.807Z,87.50
2017-09-23T11:13:36.223Z,87.80
2017-09-23T11:16:03.646Z,88.10
2017-09-23T11:18:31.829Z,89.10
2017-09-23T11:21:00.020Z,89.20
2017-09-23T11:23:27.435Z,89.80
2017-09-23T11:25:55.647Z,89.20
2017-09-23T11:28:23.073Z,89.80
2017-09-23T11:30:51.242Z,89.40
2017-09-23T11:33:19.436Z,88.80
2017-09-23T11:35:47.712Z,87.20
2017-09-23T11:38:15.274Z,87.10
2017-09-23T11:40:42.695Z,85.60
2017-09-23T11:43:10.115Z,83.80
2017-09-23T11:45:38.375Z,82.40
2017-09-23T11:48:05.835Z,80.90
2017-09-23T11:50:33.315Z,80.80
2017-09-23T11:53:00.743Z,79.60
2017-09-23T11:55:28.163Z,77.70
2017-09-23T11:57:56.364Z,71.90
2017-09-23T12:00:23.777Z,71.70
2017-09-23T12:02:51.288Z,65.80
2017-09-23T12:05:18.675Z,65.30
2017-09-23T12:07:46.786Z,60.20
2017-09-23T12:10:14.202Z,59.70
2017-09-23T12:12:41.618Z,56.70
2017-09-23T12:15:09.186Z,53.90
2017-09-23T12:17:36.635Z,52.70
2017-09-23T12:20:04.097Z,47.40
2017-09-23T12:22:31.556Z,49.20
2017-09-23T12:24:58.966Z,45.80
2017-09-23T12:27:27.923Z,40.80
2017-09-23T12:29:55.350Z,40.80
2017-09-23T12:32:22.813Z,46.20
2017-09-23T12:34:50.294Z,45.30
2017-09-23T12:37:17.740Z,48.00
2017-09-23T12:39:45.135Z,49.20
2017-09-23T12:42:13.323Z,46.80
2017-09-23T12:44:41.538Z,44.60
2017-09-23T12:47:08.960Z,44.60
2017-09-23T12:49:36.442Z,41.90
2017-09-23T12:52:03.910Z,44.60
2017-09-23T12:54:31.356Z,42.60
2017-09-23T12:56:58.784Z,42.40
2017-09-23T12:59:26.207Z,42.10
2017-09-23T13:01:53.618Z,42.40
2017-09-23T13:04:21.043Z,40.40
2017-09-23T13:06:49.355Z,42.40
2017-09-23T13:09:16.771Z,42.40
2017-09-23T13:11:44.986Z,40.10
2017-09-23T13:14:12.446Z,40.10
2017-09-23T13:16:39.858Z,39.30
2017-09-23T13:19:08.051Z,40.00
2017-09-23T13:21:35.539Z,40.00
2017-09-23T13:24:02.963Z,41.60
2017-09-23T13:26:30.380Z,43.80
2017-09-23T13:28:57.801Z,45.30
2017-09-23T13:31:25.211Z,48.70
2017-09-23T13:33:53.446Z,54.50
2017-09-23T13:36:21.096Z,54.50
2017-09-23T13:38:48.511Z,54.70
2017-09-23T13:41:16.716Z,56.10
2017-09-23T13:43:44.131Z,56.10
2017-09-23T13:46:14.503Z,60.80
2017-09-23T13:48:41.963Z,60.80
2017-09-23T13:51:09.386Z,63.10
2017-09-23T13:53:36.801Z,64.40
2017-09-23T13:56:04.319Z,67.50
2017-09-23T13:58:31.726Z,68.80
2017-09-23T14:00:59.343Z,69.00
2017-09-23T14:03:26.798Z,70.00
2017-09-23T14:05:54.211Z,69.90
2017-09-23T14:08:22.406Z,69.40
2017-09-23T14:10:49.832Z,69.40
2017-09-23T14:13:17.470Z,69.40
2017-09-23T14:15:46.298Z,71.00
2017-09-23T14:18:14.509Z,71.90
2017-09-23T14:20:42.370Z,71.90
2017-09-23T14:23:09.778Z,72.30
2017-09-23T14:25:37.963Z,75.20
2017-09-23T14:28:06.174Z,76.30
2017-09-23T14:30:34.448Z,76.20
2017-09-23T14:33:01.894Z,77.10
2017-09-23T14:35:29.428Z,77.40
2017-09-23T14:37:57.602Z,79.00
2017-09-23T14:40:25.791Z,80.70
2017-09-23T14:42:53.599Z,80.50
2017-09-23T14:45:21.003Z,81.30
2017-09-23T14:47:48.422Z,81.40
2017-09-23T14:50:15.844Z,81.40
2017-09-23T14:52:43.302Z,82.40
2017-09-23T14:55:10.763Z,83.20
2017-09-23T14:57:38.422Z,84.10
2017-09-23T15:00:06.121Z,84.50
2017-09-23T15:02:33.630Z,84.90
2017-09-23T15:05:01.045Z,84.80
2017-09-23T15:07:29.487Z,85.70
2017-09-23T15:09:56.928Z,86.90
2017-09-23T15:12:24.351Z,85.90
2017-09-23T15:14:52.560Z,86.20
2017-09-23T15:17:19.962Z,86.10
2017-09-23T15:19:47.382Z,85.80
2017-09-23T15:22:14.822Z,86.40
2017-09-23T15:24:42.285Z,86.70
2017-09-23T15:27:09.739Z,87.20
2017-09-23T15:29:37.150Z,87.00
2017-09-23T15:32:05.371Z,86.30
2017-09-23T15:34:32.802Z,86.20
2017-09-23T15:37:00.983Z,86.30
2017-09-23T15:39:28.555Z,86.30
2017-09-23T15:41:55.971Z,86.70
2017-09-23T15:44:24.155Z,86.40
2017-09-23T15:46:52.334Z,86.50
2017-09-23T15:49:19.756Z,86.50
2017-09-23T15:51:47.430Z,86.10
2017-09-23T15:54:15.251Z,86.10
2017-09-23T15:56:42.666Z,87.80
2017-09-23T15:59:10.486Z,85.90
2017-09-23T16:01:37.916Z,86.90
2017-09-23T16:04:05.337Z,86.80
2017-09-23T16:06:33.515Z,86.80
2017-09-23T16:09:01.702Z,86.70
2017-09-23T16:11:29.119Z,86.70
2017-09-23T16:13:56.638Z,86.10
2017-09-23T16:16:24.057Z,85.80
2017-09-23T16:18:52.235Z,86.10
2017-09-23T16:21:20.424Z,86.70
2017-09-23T16:23:47.899Z,86.70
2017-09-23T16:26:15.336Z,87.70
2017-09-23T16:28:43.505Z,88.70
2017-09-23T16:31:10.923Z,88.70
2017-09-23T16:33:39.842Z,89.10
2017-09-23T16:36:08.481Z,89.80
2017-09-23T16:38:35.895Z,89.70
2017-09-23T16:41:03.375Z,89.80
2017-09-23T16:43:30.795Z,90.20
2017-09-23T16:45:58.997Z,90.60
2017-09-23T16:48:26.459Z,90.60
2017-09-23T16:50:53.878Z,90.50
2017-09-23T16:53:22.192Z,91.00
2017-09-23T16:55:49.584Z,91.00
2017-09-23T16:58:18.288Z,90.90
2017-09-23T17:00:46.579Z,91.10
2017-09-23T17:03:14.776Z,91.00
2017-09-23T17:05:42.214Z,91.00
2017-09-23T17:08:10.387Z,91.10
2017-09-23T17:10:37.807Z,91.10
2017-09-23T17:13:06.835Z,91.50
2017-09-23T17:15:34.320Z,91.40
2017-09-23T17:18:01.719Z,91.80
2017-09-23T17:20:29.563Z,92.10
2017-09-23T17:22:57.480Z,92.20
2017-09-23T17:25:25.684Z,92.40
2017-09-23T17:27:53.131Z,92.40
2017-09-23T17:30:20.552Z,92.30
2017-09-23T17:32:48.766Z,92.30
2017-09-23T17:35:16.183Z,92.30
2017-09-23T17:37:44.391Z,92.30
2017-09-23T17:40:11.815Z,92.30
2017-09-23T17:42:40.001Z,92.30
2017-09-23T17:45:08.075Z,92.20
2017-09-23T17:47:35.864Z,92.30
2017-09-23T17:50:03.283Z,92.70
2017-09-23T17:52:31.463Z,92.50
2017-09-23T17:54:58.878Z,92.50
2017-09-23T17:57:26.400Z,92.60
2017-09-23T17:59:53.823Z,92.60
2017-09-23T18:02:22.036Z,92.80
2017-09-23T18:04:49.426Z,92.80
2017-09-23T18:07:16.839Z,92.80
2017-09-23T18:09:44.259Z,93.10
2017-09-23T18:12:12.443Z,93.10
2017-09-23T18:14:40.630Z,93.30
2017-09-23T18:17:08.052Z,93.30
2017-09-23T18:19:35.555Z,93.00
2017-09-23T18:22:02.982Z,93.00
2017-09-23T18:24:30.468Z,93.20
2017-09-23T18:26:57.926Z,93.10
2017-09-23T18:29:25.353Z,93.20
2017-09-23T18:31:53.665Z,93.50
2017-09-23T18:34:21.064Z,93.40
2017-09-23T18:36:49.077Z,93.40
2017-09-23T18:39:16.535Z,93.60
2017-09-23T18:41:43.963Z,93.60
2017-09-23T18:44:12.146Z,93.30
2017-09-23T18:46:40.348Z,93.20
2017-09-23T18:49:07.758Z,93.20
2017-09-23T18:51:35.976Z,93.80
2017-09-23T18:54:03.395Z,93.80
2017-09-23T18:56:31.585Z,94.10
2017-09-23T18:58:59.007Z,94.10
2017-09-23T19:01:26.423Z,94.00
2017-09-23T19:03:53.844Z,93.90
2017-09-23T19:06:22.258Z,93.80
2017-09-23T19:08:49.653Z,94.10
2017-09-23T19:11:17.158Z,93.90
2017-09-23T19:13:44.579Z,94.00
2017-09-23T19:16:12.770Z,94.30
2017-09-23T19:18:40.252Z,94.30
2017-09-23T19:21:07.712Z,94.60
2017-09-23T19:23:35.786Z,94.70
2017-09-23T19:26:03.194Z,94.70
2017-09-23T19:28:31.373Z,95.00
2017-09-23T19:30:59.573Z,95.00
2017-09-23T19:33:26.986Z,95.00
2017-09-23T19:35:54.407Z,95.20
2017-09-23T19:38:22.541Z,95.00
2017-09-23T19:40:50.719Z,95.60
2017-09-23T19:43:18.130Z,95.60
2017-09-23T19:45:46.847Z,95.40
2017-09-23T19:48:15.027Z,95.20
2017-09-23T19:50:43.209Z,95.30
2017-09-23T19:53:10.622Z,95.30
2017-09-23T19:55:38.248Z,95.50
2017-09-23T19:58:05.635Z,95.40
2017-09-23T20:00:33.055Z,95.30
2017-09-23T20:03:00.826Z,95.30
2017-09-23T20:05:28.231Z,95.30
2017-09-23T20:07:56.450Z,95.50
2017-09-23T20:10:23.864Z,95.40
2017-09-23T20:12:52.042Z,95.70
2017-09-23T20:15:20.255Z,95.90
2017-09-23T20:17:47.671Z,95.90
2017-09-23T20:20:15.859Z,96.00
2017-09-23T20:22:43.650Z,96.00
2017-09-23T20:25:11.682Z,96.10
2017-09-23T20:27:39.873Z,96.50
2017-09-23T20:30:07.345Z,96.50
2017-09-23T20:32:34.765Z,96.60
2017-09-23T20:35:02.983Z,96.40
2017-09-23T20:37:30.439Z,96.40
2017-09-23T20:39:57.847Z,96.20
2017-09-23T20:42:25.352Z,96.20
2017-09-23T20:44:52.763Z,95.90
2017-09-23T20:47:20.937Z,95.90
2017-09-23T20:49:49.147Z,95.90
2017-09-23T20:52:16.542Z,95.90
2017-09-23T20:54:44.069Z,95.70
2017-09-23T20:57:11.630Z,95.60
2017-09-23T20:59:39.025Z,95.40
2017-09-23T21:02:06.443Z,95.30
2017-09-23T21:04:33.858Z,95.10
2017-09-23T21:07:02.046Z,95.20
2017-09-23T21:09:29.486Z,95.20
2017-09-23T21:11:56.955Z,95.00
2017-09-23T21:14:25.207Z,94.70
2017-09-23T21:16:52.713Z,94.70
2017-09-23T21:19:20.139Z,94.60
2017-09-23T21:21:48.403Z,94.80
2017-09-23T21:24:15.912Z,94.40
2017-09-23T21:26:43.333Z,94.40
2017-09-23T21:29:10.731Z,94.40
2017-09-23T21:31:38.153Z,94.30
2017-09-23T21:34:06.352Z,94.30
2017-09-23T21:36:33.798Z,94.60
2017-09-23T21:39:01.195Z,94.60
2017-09-23T21:41:30.110Z,94.50
2017-09-23T21:43:58.290Z,94.30
2017-09-23T21:46:25.891Z,94.30
2017-09-23T21:48:53.306Z,94.20
2017-09-23T21:51:20.731Z,94.20
2017-09-23T21:53:48.149Z,94.30
2017-09-23T21:56:15.590Z,94.30
2017-09-23T21:58:43.006Z,94.40
2017-09-23T22:01:10.455Z,94.40
2017-09-23T22:03:37.970Z,94.60
2017-09-23T22:06:05.391Z,94.50
2017-09-23T22:08:33.920Z,94.30
2017-09-23T22:11:01.334Z,94.30
2017-09-23T22:13:29.539Z,94.30
2017-09-23T22:15:56.959Z,94.30
2017-09-23T22:18:25.166Z,94.60
2017-09-23T22:20:52.727Z,94.60
2017-09-23T22:23:20.146Z,94.60
2017-09-23T22:25:48.321Z,94.60
2017-09-23T22:28:16.535Z,94.60
2017-09-23T22:30:44.816Z,94.60
2017-09-23T22:33:12.235Z,94.60
2017-09-23T22:35:39.947Z,94.70
2017-09-23T22:38:07.378Z,94.80
2017-09-23T22:40:34.836Z,94.80
2017-09-23T22:43:02.711Z,94.80
2017-09-23T22:45:30.153Z,94.80
2017-09-23T22:47:57.599Z,94.90
2017-09-23T22:50:25.056Z,95.00
2017-09-23T22:52:53.294Z,94.70
2017-09-23T22:55:20.739Z,94.70
2017-09-23T22:57:48.185Z,94.60
2017-09-23T23:00:15.664Z,94.70
2017-09-23T23:02:43.106Z,94.60
2017-09-23T23:05:10.503Z,94.50
2017-09-23T23:07:37.914Z,94.60
2017-09-23T23:10:05.443Z,94.60
2017-09-23T23:12:32.854Z,94.70
2017-09-23T23:15:01.072Z,94.60
2017-09-23T23:17:28.919Z,94.50
2017-09-23T23:19:57.118Z,94.30
2017-09-23T23:22:25.398Z,94.20
2017-09-23T23:24:53.135Z,94.20
2017-09-23T23:27:21.307Z,94.20
2017-09-23T23:29:48.751Z,94.20
2017-09-23T23:32:16.972Z,94.30
2017-09-23T23:34:44.516Z,94.30
2017-09-23T23:37:12.049Z,94.50
2017-09-23T23:39:39.495Z,94.60
2017-09-23T23:42:08.383Z,94.80
2017-09-23T23:44:36.673Z,94.80
2017-09-23T23:47:04.912Z,94.80
2017-09-23T23:49:32.519Z,94.70
2017-09-23T23:52:00.701Z,94.80
2017-09-23T23:54:28.188Z,94.80
2017-09-23T23:56:55.963Z,94.70
2017-09-23T23:59:24.162Z,94.70
